Terminal Aerodrome Forecast
Issued by NWS Paducah, KY

Home | Current Version | Previous Version | Graphics & Text | Print | Product List | Glossary On
Versions: 1 2 3 4 5 6 7 8 9 10 11 12 13 14 15 16 17 18 19 20 21 22
366
FTUS43 KPAH 231720
TAFPAH
TAF
KPAH 231720Z 2318/2418 VRB05KT P6SM VCSH BKN006
      TEMPO 2318/2322 4SM -SHRA SCT006 BKN015
     FM240000 01004KT P6SM OVC015
     FM240600 04006KT 4SM BR VCSH OVC005
     FM240900 06007KT 3SM -SHRA BR OVC004=

USA.gov is the U.S. government's official web portal to all federal, state and local government web resources and services.